Time;durP1;ratioP1;P1;durP2;ratioP2;P2;SDS_P1;SDS_P2;PMS_P1;PMS_P2;Temp;Humidity;BMP_temperature;BMP_pressure;BME280_temperature;BME280_humidity;BME280_pressure;Samples;Min_cycle;Max_cycle;Signal;HPM_P1;HPM_P2
2021/09/05 00:02:05;;;;;;;9.70;3.60;;;;;;;10.50;61.85;100160.44;458188;1191;195061;-60
2021/09/05 00:12:10;;;;;;;4.90;3.30;;;;;;;10.41;61.91;100162.30;457844;1195;142182;-61
2021/09/05 00:22:13;;;;;;;7.40;3.80;;;;;;;10.33;62.20;100162.72;457434;1195;141125;-61
2021/09/05 00:32:17;;;;;;;4.00;2.90;;;;;;;10.35;62.34;100164.18;456320;1200;141478;-57
2021/09/05 00:42:25;;;;;;;5.40;3.20;;;;;;;10.36;62.42;100172.67;457382;1195;145332;-57
2021/09/05 00:52:28;;;;;;;7.20;3.60;;;;;;;10.30;62.63;100172.45;457136;1194;140815;-59
2021/09/05 01:02:33;;;;;;;5.60;3.00;;;;;;;10.23;63.12;100173.41;455394;1202;142134;-61
2021/09/05 01:12:38;;;;;;;5.50;3.10;;;;;;;10.11;63.28;100177.01;456352;1195;145770;-59
2021/09/05 01:22:41;;;;;;;6.90;3.60;;;;;;;9.91;63.81;100193.91;456256;1198;143330;-60
2021/09/05 01:32:44;;;;;;;4.20;3.20;;;;;;;9.71;64.50;100206.11;455945;1197;141529;-60
2021/09/05 01:42:48;;;;;;;5.80;3.90;;;;;;;9.52;65.02;100210.40;468681;1194;141834;-60
2021/09/05 01:52:52;;;;;;;3.80;2.40;;;;;;;9.35;65.52;100218.58;470139;1194;142181;-60
2021/09/05 02:02:55;;;;;;;7.20;3.90;;;;;;;9.22;65.90;100225.11;472677;1193;199827;-62
2021/09/05 02:12:58;;;;;;;8.10;3.00;;;;;;;9.06;66.46;100225.19;472655;1194;144433;-61
2021/09/05 02:23:02;;;;;;;5.30;3.50;;;;;;;8.95;67.09;100221.33;472118;1190;142298;-61
2021/09/05 02:33:06;;;;;;;6.20;3.40;;;;;;;8.87;67.37;100220.48;472215;1194;141363;-61
2021/09/05 02:43:10;;;;;;;8.80;4.00;;;;;;;8.77;67.91;100240.86;472397;1194;142936;-61
2021/09/05 02:53:13;;;;;;;5.10;3.30;;;;;;;8.68;68.22;100249.64;471421;1195;142149;-61
2021/09/05 03:03:17;;;;;;;5.50;4.70;;;;;;;8.60;68.63;100254.02;472563;1194;142051;-61
2021/09/05 03:13:21;;;;;;;7.60;4.40;;;;;;;8.52;69.08;100240.20;472670;1194;141323;-61
2021/09/05 03:23:25;;;;;;;4.40;3.20;;;;;;;8.36;69.32;100244.73;471402;1195;141784;-61
2021/09/05 03:33:29;;;;;;;5.40;3.40;;;;;;;8.21;69.85;100266.00;466503;1194;141943;-61
2021/09/05 03:43:32;;;;;;;5.10;4.20;;;;;;;8.06;70.17;100269.02;472305;1195;141753;-60
2021/09/05 03:53:35;;;;;;;5.20;4.60;;;;;;;7.97;70.62;100263.30;471852;1194;141397;-62
2021/09/05 04:03:39;;;;;;;9.00;5.40;;;;;;;7.98;70.87;100274.80;472732;1194;141941;-61
2021/09/05 04:13:43;;;;;;;6.50;4.00;;;;;;;8.01;71.16;100293.52;471678;1194;141006;-60
2021/09/05 04:23:47;;;;;;;6.00;4.20;;;;;;;8.09;71.38;100306.23;472227;1195;142012;-61
2021/09/05 04:33:50;;;;;;;7.70;5.00;;;;;;;8.24;71.50;100315.19;472884;1191;140656;-61
2021/09/05 04:43:53;;;;;;;7.50;5.80;;;;;;;8.56;71.48;100317.15;458813;1194;141843;-60
2021/09/05 04:53:56;;;;;;;8.00;5.00;;;;;;;9.12;71.05;100322.38;469120;1194;141479;-61
2021/09/05 05:04:00;;;;;;;8.70;5.50;;;;;;;9.82;69.98;100326.25;463335;1194;141526;-60
2021/09/05 05:14:12;;;;;;;9.50;6.40;;;;;;;10.30;68.77;100324.77;472062;1194;143971;-63
2021/09/05 05:24:16;;;;;;;7.30;4.40;;;;;;;14.13;66.73;100331.71;472720;1194;143530;-63
2021/09/05 05:34:19;;;;;;;8.40;5.10;;;;;;;20.57;57.68;100331.92;473045;1182;142230;-63
2021/09/05 05:44:22;;;;;;;6.70;4.10;;;;;;;27.11;47.38;100337.20;467782;1194;143916;-63
2021/09/05 05:54:25;;;;;;;4.10;3.00;;;;;;;31.16;39.76;100335.73;471239;1194;141193;-64
2021/09/05 06:04:29;;;;;;;5.50;2.80;;;;;;;33.73;33.64;100343.61;473191;1190;141738;-63
2021/09/05 06:14:32;;;;;;;3.30;2.70;;;;;;;35.53;29.35;100354.22;472145;1194;141405;-63
2021/09/05 06:24:36;;;;;;;3.40;3.10;;;;;;;36.89;26.04;100367.63;457129;1193;141502;-63
2021/09/05 06:34:38;;;;;;;;;;;;;;;37.63;23.93;100378.02;472915;1194;142965;-64
2021/09/05 06:44:41;;;;;;;3.30;2.40;;;;;;;38.82;22.33;100380.35;473158;1194;127826;-63
2021/09/05 06:54:44;;;;;;;3.00;2.60;;;;;;;39.13;21.06;100392.39;472813;1194;141601;-64
2021/09/05 07:04:48;;;;;;;3.20;1.70;;;;;;;39.92;20.13;100406.61;472191;1194;180078;-63
2021/09/05 07:14:58;;;;;;;2.30;1.70;;;;;;;42.00;18.76;100420.66;472923;1194;140376;-64
2021/09/05 07:25:03;;;;;;;1.50;1.40;;;;;;;42.31;17.39;100428.41;472901;1194;141519;-63
2021/09/05 07:35:08;;;;;;;1.50;1.40;;;;;;;43.47;16.60;100435.76;472128;1191;141424;-62
2021/09/05 07:45:12;;;;;;;2.10;1.60;;;;;;;43.62;16.00;100443.16;472768;1194;141847;-62
2021/09/05 07:55:15;;;;;;;1.80;1.70;;;;;;;45.06;15.29;100448.70;472879;1194;141546;-63
2021/09/05 08:05:19;;;;;;;1.50;1.40;;;;;;;45.28;14.68;100458.91;472144;1194;140745;-65
2021/09/05 08:15:23;;;;;;;1.70;1.60;;;;;;;45.13;14.42;100463.66;471940;1194;140848;-63
2021/09/05 08:25:26;;;;;;;1.70;1.60;;;;;;;45.81;14.09;100467.05;472842;1194;144508;-63
2021/09/05 08:35:30;;;;;;;1.60;1.30;;;;;;;44.74;13.36;100474.16;470451;1194;141265;-61
2021/09/05 08:45:34;;;;;;;2.10;1.20;;;;;;;36.90;15.91;100472.41;472854;1191;141045;-62
2021/09/05 08:55:38;;;;;;;1.50;1.40;;;;;;;29.48;20.10;100479.83;472284;1195;141331;-62
2021/09/05 09:05:44;;;;;;;2.90;1.20;;;;;;;25.83;23.66;100487.05;456957;1194;10002043;-61
2021/09/05 09:15:47;;;;;;;1.20;1.10;;;;;;;23.62;25.93;100491.82;470587;1194;141574;-61
2021/09/05 09:25:59;;;;;;;1.00;0.80;;;;;;;22.41;27.88;100501.25;455782;1194;141378;-58
2021/09/05 09:36:04;;;;;;;2.10;1.30;;;;;;;21.58;29.20;100504.05;455983;1200;140760;-60
2021/09/05 09:46:15;;;;;;;3.80;1.20;;;;;;;20.49;31.03;100498.35;472598;1194;140701;-61
2021/09/05 09:56:20;;;;;;;1.80;1.30;;;;;;;20.11;32.19;100495.30;471973;1185;142382;-62
2021/09/05 10:06:25;;;;;;;1.90;0.70;;;;;;;20.01;32.92;100490.52;472620;1194;140192;-61
2021/09/05 10:16:29;;;;;;;2.50;1.60;;;;;;;20.31;32.97;100490.36;464400;1195;141176;-60
2021/09/05 10:26:33;;;;;;;2.40;1.20;;;;;;;20.27;33.11;100489.84;471346;1195;142207;-61
2021/09/05 10:36:43;;;;;;;1.20;1.00;;;;;;;20.03;32.82;100485.58;458912;1195;140821;-59
2021/09/05 10:46:48;;;;;;;2.20;1.10;;;;;;;19.93;33.03;100488.58;471949;1191;141006;-59
2021/09/05 10:56:52;;;;;;;1.80;1.30;;;;;;;20.30;32.96;100490.25;472774;1194;142655;-60
2021/09/05 11:06:57;;;;;;;1.30;0.90;;;;;;;19.79;33.51;100495.30;472746;1195;141163;-61
2021/09/05 11:17:01;;;;;;;2.10;1.00;;;;;;;19.72;33.96;100491.44;471609;1194;140504;-61
2021/09/05 11:27:06;;;;;;;1.10;1.00;;;;;;;19.19;34.08;100493.54;468256;1195;140573;-61
2021/09/05 11:37:09;;;;;;;2.00;1.00;;;;;;;18.90;34.61;100486.59;460311;1194;144897;-60
2021/09/05 11:47:13;;;;;;;2.90;0.90;;;;;;;18.79;35.19;100487.63;472005;1193;142390;-61
2021/09/05 11:57:16;;;;;;;3.20;1.10;;;;;;;18.46;35.35;100488.95;464519;1194;140835;-59
2021/09/05 12:07:19;;;;;;;2.60;1.10;;;;;;;18.02;35.60;100486.87;459007;1194;141309;-61
2021/09/05 12:17:28;;;;;;;2.40;1.20;;;;;;;18.07;36.20;100478.88;465403;1192;140580;-59
2021/09/05 12:27:33;;;;;;;2.20;2.00;;;;;;;17.88;36.49;100480.86;462823;1195;140702;-61
2021/09/05 12:37:39;;;;;;;1.20;1.10;;;;;;;17.57;36.75;100480.15;463470;1194;10001295;-59
2021/09/05 12:47:47;;;;;;;0.70;0.60;;;;;;;17.34;36.50;100479.16;456320;1195;143972;-59
2021/09/05 12:57:50;;;;;;;1.80;1.20;;;;;;;17.21;36.71;100475.34;472826;1193;151546;-64
2021/09/05 13:07:53;;;;;;;1.20;1.10;;;;;;;17.14;37.30;100476.05;472156;1192;141538;-60
2021/09/05 13:17:57;;;;;;;4.30;2.40;;;;;;;17.06;37.28;100474.19;471643;1194;141107;-64
2021/09/05 13:28:01;;;;;;;1.80;1.50;;;;;;;16.91;37.28;100474.63;472500;1194;140887;-62
2021/09/05 13:38:04;;;;;;;1.50;0.80;;;;;;;16.67;37.49;100470.92;471961;1193;140479;-61
2021/09/05 13:48:08;;;;;;;1.50;1.40;;;;;;;16.75;37.54;100463.61;468222;1194;140647;-59
2021/09/05 13:58:11;;;;;;;2.80;1.70;;;;;;;16.87;37.69;100465.38;460369;1194;143037;-61
2021/09/05 14:08:15;;;;;;;1.70;0.70;;;;;;;16.80;38.19;100461.09;461379;1195;142798;-62
2021/09/05 14:18:18;;;;;;;1.10;0.90;;;;;;;16.65;38.44;100462.40;462351;1195;140460;-58
2021/09/05 14:28:24;;;;;;;0.90;0.70;;;;;;;16.57;38.18;100460.19;470524;1194;141005;-62
2021/09/05 14:48:56;;;;;;;0.80;0.70;;;;;;;16.48;37.98;100460.15;464245;1194;140974;-58
2021/09/05 14:59:05;;;;;;;0.80;0.70;;;;;;;16.48;38.19;100457.66;471471;1193;143436;-61
2021/09/05 15:19:30;;;;;;;3.00;0.80;;;;;;;16.46;37.96;100452.86;459016;1194;140654;-60
2021/09/05 15:29:42;;;;;;;0.90;0.50;;;;;;;16.37;38.07;100450.72;447739;1195;10001181;-63
2021/09/05 16:00:38;;;;;;;0.80;0.80;;;;;;;16.01;38.50;100444.20;465764;1194;141806;-60
2021/09/05 16:21:04;;;;;;;1.70;1.20;;;;;;;15.64;38.70;100444.31;456549;1193;141506;-60
2021/09/05 16:31:07;;;;;;;1.10;1.00;;;;;;;15.45;38.88;100449.02;460356;1194;141229;-62
2021/09/05 16:41:10;;;;;;;1.40;1.00;;;;;;;15.20;39.36;100452.48;460741;1194;142137;-58
2021/09/05 16:51:15;;;;;;;2.70;1.00;;;;;;;14.89;39.77;100458.36;456271;1194;142813;-58
2021/09/05 17:01:22;;;;;;;2.90;1.90;;;;;;;14.61;39.61;100460.02;456581;1202;141682;-60
2021/09/05 17:11:26;;;;;;;2.90;2.20;;;;;;;14.31;40.14;100469.34;460915;1194;141790;-61
2021/09/05 17:21:29;;;;;;;4.80;2.40;;;;;;;13.96;40.59;100473.34;472845;1190;142210;-62
2021/09/05 17:31:33;;;;;;;2.80;1.70;;;;;;;13.52;41.61;100485.23;456858;1194;140645;-61
2021/09/05 17:41:37;;;;;;;3.50;2.30;;;;;;;13.06;42.87;100493.98;455260;1194;140711;-63
2021/09/05 17:51:42;;;;;;;4.70;3.70;;;;;;;12.64;43.95;100498.91;463979;1194;141820;-62
2021/09/05 18:01:45;;;;;;;17.20;13.10;;;;;;;12.30;45.01;100511.55;471580;1190;141435;-62
2021/09/05 18:11:49;;;;;;;8.10;6.30;;;;;;;12.03;45.96;100526.02;472334;1193;141354;-63
2021/09/05 18:21:53;;;;;;;6.70;3.60;;;;;;;11.82;46.76;100526.09;464024;1194;140826;-63
2021/09/05 18:31:57;;;;;;;3.00;2.70;;;;;;;11.67;47.60;100535.10;470894;1194;140836;-65
2021/09/05 18:42:00;;;;;;;5.10;2.80;;;;;;;11.48;48.55;100541.00;458299;1193;142344;-69
2021/09/05 18:52:05;;;;;;;5.60;3.10;;;;;;;11.33;49.44;100548.59;456373;1201;141353;-59
2021/09/05 19:02:08;;;;;;;6.60;3.90;;;;;;;11.16;50.13;100541.41;471962;1194;142044;-59
2021/09/05 19:12:12;;;;;;;4.70;3.40;;;;;;;11.01;50.99;100537.08;465607;1194;140971;-59
2021/09/05 19:22:15;;;;;;;3.90;2.80;;;;;;;10.88;51.66;100537.21;472714;1193;141874;-59
2021/09/05 19:32:18;;;;;;;5.00;3.10;;;;;;;10.81;52.11;100536.84;472036;1194;141821;-58
2021/09/05 19:42:21;;;;;;;3.50;2.00;;;;;;;10.74;52.39;100549.80;472822;1194;141677;-59
2021/09/05 19:52:24;;;;;;;4.40;2.10;;;;;;;10.68;52.94;100548.00;458618;1194;141327;-59
2021/09/05 20:02:28;;;;;;;3.60;2.30;;;;;;;10.55;53.29;100551.63;455218;1194;141407;-59
2021/09/05 20:12:32;;;;;;;6.10;2.40;;;;;;;10.42;53.73;100552.39;462460;1194;142911;-57
2021/09/05 20:22:35;;;;;;;6.50;3.80;;;;;;;10.33;54.10;100555.07;472657;1194;140697;-59
2021/09/05 20:32:39;;;;;;;4.40;2.40;;;;;;;10.18;54.37;100557.17;462509;1194;142129;-59
2021/09/05 20:42:42;;;;;;;6.50;4.00;;;;;;;10.06;54.65;100559.31;456138;1202;144804;-59
2021/09/05 20:52:47;;;;;;;9.10;4.00;;;;;;;9.97;54.52;100560.05;455331;1195;141004;-59
2021/09/05 21:02:51;;;;;;;5.00;3.30;;;;;;;9.84;54.68;100560.82;472646;1183;144482;-59
2021/09/05 21:12:54;;;;;;;5.20;3.30;;;;;;;9.69;55.06;100568.99;472803;1194;141769;-59
2021/09/05 21:22:57;;;;;;;4.70;3.40;;;;;;;9.60;55.55;100569.59;461104;1194;140469;-58
2021/09/05 21:33:00;;;;;;;10.70;4.80;;;;;;;9.52;56.01;100563.61;463888;1183;140535;-60
2021/09/05 21:43:04;;;;;;;13.10;8.70;;;;;;;9.39;56.62;100563.65;456254;1195;140809;-60
2021/09/05 21:53:07;;;;;;;7.20;5.40;;;;;;;9.29;56.85;100567.58;458257;1194;10001318;-59
2021/09/05 22:03:13;;;;;;;6.10;4.00;;;;;;;9.23;57.18;100569.76;472652;1194;142339;-58
2021/09/05 22:13:17;;;;;;;3.30;2.80;;;;;;;9.24;57.44;100570.27;472657;1194;142368;-59
2021/09/05 22:23:21;;;;;;;4.60;2.90;;;;;;;9.26;57.86;100575.60;467471;1194;140908;-59
2021/09/05 22:33:24;;;;;;;4.20;2.40;;;;;;;9.16;58.09;100575.67;472450;1194;143138;-60
2021/09/05 22:43:27;;;;;;;3.30;2.50;;;;;;;9.06;58.23;100577.99;472847;1194;140723;-60
2021/09/05 22:53:31;;;;;;;3.60;2.50;;;;;;;8.95;58.65;100579.47;472086;1194;142632;-59
2021/09/05 23:03:34;;;;;;;2.60;2.20;;;;;;;8.83;58.99;100578.42;460306;1194;141117;-59
2021/09/05 23:13:38;;;;;;;5.10;3.60;;;;;;;8.67;59.26;100575.23;459009;1194;140802;-58
2021/09/05 23:23:42;;;;;;;4.00;2.60;;;;;;;8.53;60.02;100573.13;455778;1194;140994;-57
2021/09/05 23:33:45;;;;;;;3.50;2.90;;;;;;;8.36;60.41;100571.33;459455;1194;141688;-59
2021/09/05 23:43:48;;;;;;;5.00;3.00;;;;;;;8.19;60.92;100570.92;466217;1194;141175;-59
2021/09/05 23:53:52;;;;;;;4.70;3.40;;;;;;;8.05;61.23;100574.93;472793;1194;144811;-59
